Flight Track Log - Related Links

Times and Time Zones

All times are in EDT time to prevent confusion due to time zone crossing. See the CES2828 flight status page for this flight to view local times or setup timezone preferences in your user account.

Time Position Orientation Groundspeed Altitude Reporting Facility
EDT Latitude Longitude Course Direction KTS MPH feet Rate Location/Type
Wed 10:38:00 AM 19.8103 109.5440 North  Level Estimated
Wed 10:39:00 AM 19.8989 109.5518 North  Level Estimated
Wed 10:40:00 AM 19.9876 109.5596 North  Level Estimated
Wed 10:41:00 AM 20.0763 109.5675 North  Level Estimated
Wed 10:42:00 AM 20.1649 109.5753 North  Level Estimated
Wed 10:43:00 AM 20.2536 109.5832 North  Level Estimated
Wed 10:44:00 AM 20.3422 109.5910 North  Level Estimated
Wed 10:45:00 AM 20.4309 109.5989 North  Level Estimated
Wed 10:46:00 AM 20.5196 109.6068 North  Level Estimated
Wed 10:47:00 AM 20.6082 109.6147 North  Level Estimated
Wed 10:48:00 AM 20.6969 109.6226 North  Level Estimated
Wed 10:49:00 AM 20.7855 109.6305 North  Level Estimated
Wed 10:50:00 AM 20.8742 109.6384 North  Level Estimated
Wed 10:51:00 AM 20.9629 109.6464 North  Level Estimated
Wed 10:52:00 AM 21.0515 109.6543 North  Level Estimated
Wed 10:53:00 AM 21.1402 109.6622 North  Level Estimated
Wed 10:54:00 AM 21.2288 109.6702 North  Level Estimated
Wed 10:55:00 AM 21.3175 109.6782 North  Level Estimated
Wed 10:56:00 AM 21.4062 109.6862 North  Level Estimated
Wed 10:57:00 AM 21.4948 109.6942 North  Level Estimated
Wed 10:58:00 AM 21.5835 109.7021 North  Level Estimated
Wed 10:59:00 AM 21.6721 109.7102 North  Level Estimated
Wed 11:00:00 AM 21.7608 109.7182 North  Level Estimated
Wed 11:01:00 AM 21.8495 109.7262 North  Level Estimated
Wed 11:02:00 AM 21.9381 109.7343 North  Level Estimated
Wed 11:03:00 AM 22.0268 109.7423 North  Level Estimated
Wed 11:04:00 AM 22.1154 109.7504 North  Level Estimated
Wed 11:05:00 AM 22.2041 109.7584 North  Level Estimated
Wed 11:06:00 AM 22.2928 109.7665 North  Level Estimated
Wed 11:07:00 AM 22.3814 109.7746 North  Level Estimated
Wed 11:08:00 AM 22.4701 109.7827 North  Level Estimated
Wed 11:09:00 AM 22.5587 109.7908 North  Level Estimated
Wed 11:10:00 AM 22.6474 109.7989 North  Level Estimated
Wed 11:11:00 AM 22.7360 109.8071 North  Level Estimated
Wed 11:12:00 AM 22.8247 109.8152 North  Level Estimated
Wed 11:13:00 AM 22.9133 109.8233 North  Level Estimated
Wed 11:14:00 AM 23.0020 109.8315 North  Level Estimated
Wed 11:15:00 AM 23.0906 109.8397 North  Level Estimated
Wed 11:16:00 AM 23.1793 109.8479 North  Level Estimated
Wed 11:17:00 AM 23.2679 109.8560 North  Level Estimated
Wed 11:18:00 AM 23.3566 109.8643 North  Level Estimated
Wed 11:19:00 AM 23.4452 109.8725 North  Level Estimated
Wed 11:20:00 AM 23.5339 109.8807 North  Level Estimated
Wed 11:21:00 AM 23.6225 109.8889 North  Level Estimated
Wed 11:22:00 AM 23.7112 109.8972 North  Level Estimated
Wed 11:23:00 AM 23.7998 109.9055 North  Level Estimated
Wed 11:24:00 AM 23.8885 109.9137 North  Level Estimated
Wed 11:25:00 AM 23.9771 109.9220 North  Level Estimated
Wed 11:26:00 AM 24.0658 109.9303 North  Level Estimated
Wed 11:27:00 AM 24.1544 109.9386 North  Level Estimated
Wed 11:28:00 AM 24.2431 109.9469 North  Level Estimated
Wed 11:29:00 AM 24.3317 109.9553 North  Level Estimated
Wed 11:30:00 AM 24.4204 109.9636 North  Level Estimated
Wed 11:31:00 AM 24.5090 109.9719 North  Level Estimated
Wed 11:32:00 AM 24.5977 109.9803 North  Level Estimated
Wed 11:33:00 AM 24.6863 109.9887 North  Level Estimated
Wed 11:34:00 AM 24.7749 109.9971 North  Level Estimated
Wed 11:35:00 AM 24.8636 110.0055 North  Level Estimated
Wed 11:36:00 AM 24.9668 110.0153 North  Level Estimated
Wed 11:37:00 AM 25.0700 110.0251 North  Level Estimated
Wed 11:38:00 AM 25.1732 110.0349 North  Level Estimated
Wed 11:39:00 AM 25.2181 110.0392 North  Level Estimated
Wed 11:40:00 AM 25.2181 110.0392 214° Southwest  Level Estimated
Wed 11:41:00 AM 25.2181 110.0392 214° Southwest  Level Estimated
Wed 11:42:00 AM 25.2181 110.0392 214° Southwest  Level Estimated
Wed 11:43:00 AM 25.2181 110.0392 214° Southwest  Level Estimated
Wed 11:44:00 AM 25.2181 110.0392 214° Southwest  Level Estimated

Login

Don't have an account? Register now (free) for customized features, flight alerts, and more!